sensor_id;sensor_type;location;lat;lon;timestamp;pressure;altitude;pressure_sealevel;temperature;humidity
79612;BME280;69094;48.154;11.536;2023-11-19T00:00:19;95608.72;;;3.22;98.04
79612;BME280;69094;48.154;11.536;2023-11-19T00:02:44;95604.13;;;3.22;97.64
79612;BME280;69094;48.154;11.536;2023-11-19T00:05:10;95604.09;;;3.28;98.60
79612;BME280;69094;48.154;11.536;2023-11-19T00:07:39;95595.78;;;3.24;99.04
79612;BME280;69094;48.154;11.536;2023-11-19T00:10:13;95594.41;;;3.32;99.69
79612;BME280;69094;48.154;11.536;2023-11-19T00:12:41;95585.94;;;3.54;99.14
79612;BME280;69094;48.154;11.536;2023-11-19T00:15:07;95580.28;;;3.50;98.18
79612;BME280;69094;48.154;11.536;2023-11-19T00:17:37;95572.72;;;3.57;98.38
79612;BME280;69094;48.154;11.536;2023-11-19T00:20:07;95567.31;;;3.57;98.59
79612;BME280;69094;48.154;11.536;2023-11-19T00:22:33;95567.28;;;3.62;98.13
79612;BME280;69094;48.154;11.536;2023-11-19T00:24:58;95564.09;;;3.60;98.81
79612;BME280;69094;48.154;11.536;2023-11-19T00:27:24;95553.03;;;3.62;99.04
79612;BME280;69094;48.154;11.536;2023-11-19T00:29:50;95550.88;;;3.64;99.28
79612;BME280;69094;48.154;11.536;2023-11-19T00:32:15;95558.91;;;3.69;99.81
79612;BME280;69094;48.154;11.536;2023-11-19T00:34:43;95549.50;;;3.66;100.00
79612;BME280;69094;48.154;11.536;2023-11-19T00:37:09;95541.66;;;3.70;100.00
79612;BME280;69094;48.154;11.536;2023-11-19T00:39:34;95548.06;;;3.79;100.00
79612;BME280;69094;48.154;11.536;2023-11-19T00:42:00;95545.53;;;3.93;100.00
79612;BME280;69094;48.154;11.536;2023-11-19T00:44:25;95535.97;;;4.06;100.00
79612;BME280;69094;48.154;11.536;2023-11-19T00:46:50;95533.88;;;4.03;100.00
79612;BME280;69094;48.154;11.536;2023-11-19T00:49:16;95531.88;;;4.14;100.00
79612;BME280;69094;48.154;11.536;2023-11-19T00:51:41;95534.03;;;4.12;100.00
79612;BME280;69094;48.154;11.536;2023-11-19T00:54:06;95530.22;;;4.18;100.00
79612;BME280;69094;48.154;11.536;2023-11-19T00:56:31;95529.31;;;4.27;100.00
79612;BME280;69094;48.154;11.536;2023-11-19T00:58:57;95528.72;;;4.30;100.00
79612;BME280;69094;48.154;11.536;2023-11-19T01:01:22;95514.53;;;4.25;100.00
79612;BME280;69094;48.154;11.536;2023-11-19T01:03:48;95522.56;;;4.30;99.79
79612;BME280;69094;48.154;11.536;2023-11-19T01:06:13;95518.00;;;4.25;100.00
79612;BME280;69094;48.154;11.536;2023-11-19T01:08:43;95516.84;;;4.31;100.00
79612;BME280;69094;48.154;11.536;2023-11-19T01:11:19;95522.25;;;4.31;100.00
79612;BME280;69094;48.154;11.536;2023-11-19T01:13:46;95509.50;;;4.37;100.00
79612;BME280;69094;48.154;11.536;2023-11-19T01:16:11;95511.34;;;4.42;100.00
79612;BME280;69094;48.154;11.536;2023-11-19T01:18:38;95507.06;;;4.41;100.00
79612;BME280;69094;48.154;11.536;2023-11-19T01:21:03;95509.84;;;4.54;100.00
79612;BME280;69094;48.154;11.536;2023-11-19T01:23:28;95511.81;;;4.49;100.00
79612;BME280;69094;48.154;11.536;2023-11-19T01:25:54;95495.59;;;4.54;100.00
79612;BME280;69094;48.154;11.536;2023-11-19T01:28:19;95487.81;;;4.52;100.00
79612;BME280;69094;48.154;11.536;2023-11-19T01:30:44;95497.22;;;4.55;100.00
79612;BME280;69094;48.154;11.536;2023-11-19T01:33:10;95495.81;;;4.58;100.00
79612;BME280;69094;48.154;11.536;2023-11-19T01:35:35;95493.28;;;4.66;100.00
79612;BME280;69094;48.154;11.536;2023-11-19T01:38:03;95488.47;;;4.63;100.00
79612;BME280;69094;48.154;11.536;2023-11-19T01:40:28;95474.78;;;4.60;100.00
79612;BME280;69094;48.154;11.536;2023-11-19T01:42:53;95478.66;;;4.72;100.00
79612;BME280;69094;48.154;11.536;2023-11-19T01:45:28;95480.53;;;4.72;100.00
79612;BME280;69094;48.154;11.536;2023-11-19T01:47:57;95476.63;;;4.83;100.00
79612;BME280;69094;48.154;11.536;2023-11-19T01:50:24;95476.91;;;4.82;100.00
79612;BME280;69094;48.154;11.536;2023-11-19T01:52:54;95469.91;;;4.81;100.00
79612;BME280;69094;48.154;11.536;2023-11-19T01:55:23;95475.97;;;4.91;100.00
79612;BME280;69094;48.154;11.536;2023-11-19T01:57:49;95476.47;;;4.93;100.00
79612;BME280;69094;48.154;11.536;2023-11-19T02:00:16;95467.00;;;4.96;100.00
79612;BME280;69094;48.154;11.536;2023-11-19T02:02:46;95469.41;;;4.97;100.00
79612;BME280;69094;48.154;11.536;2023-11-19T02:05:11;95459.00;;;5.10;100.00
79612;BME280;69094;48.154;11.536;2023-11-19T02:07:38;95454.31;;;5.15;100.00
79612;BME280;69094;48.154;11.536;2023-11-19T02:10:03;95457.81;;;5.16;100.00
79612;BME280;69094;48.154;11.536;2023-11-19T02:12:31;95444.03;;;5.17;100.00
79612;BME280;69094;48.154;11.536;2023-11-19T02:15:01;95438.06;;;5.21;100.00
79612;BME280;69094;48.154;11.536;2023-11-19T02:17:31;95432.88;;;5.24;100.00
79612;BME280;69094;48.154;11.536;2023-11-19T02:19:57;95430.81;;;5.35;100.00
79612;BME280;69094;48.154;11.536;2023-11-19T02:22:24;95426.03;;;5.32;100.00
79612;BME280;69094;48.154;11.536;2023-11-19T02:24:50;95422.72;;;5.35;100.00
79612;BME280;69094;48.154;11.536;2023-11-19T02:29:51;95405.34;;;5.41;100.00
79612;BME280;69094;48.154;11.536;2023-11-19T02:32:19;95399.84;;;5.46;100.00
79612;BME280;69094;48.154;11.536;2023-11-19T02:34:44;95396.50;;;5.54;100.00
79612;BME280;69094;48.154;11.536;2023-11-19T02:37:09;95398.50;;;5.63;100.00
79612;BME280;69094;48.154;11.536;2023-11-19T02:39:35;95394.22;;;5.75;100.00
79612;BME280;69094;48.154;11.536;2023-11-19T02:42:02;95395.13;;;5.85;100.00
79612;BME280;69094;48.154;11.536;2023-11-19T02:44:27;95392.28;;;5.95;100.00
79612;BME280;69094;48.154;11.536;2023-11-19T02:46:55;95380.66;;;6.08;100.00
79612;BME280;69094;48.154;11.536;2023-11-19T02:49:24;95385.28;;;6.21;100.00
79612;BME280;69094;48.154;11.536;2023-11-19T02:51:50;95381.84;;;6.30;100.00
79612;BME280;69094;48.154;11.536;2023-11-19T02:54:15;95373.63;;;6.35;100.00
79612;BME280;69094;48.154;11.536;2023-11-19T02:56:42;95370.72;;;6.45;100.00
79612;BME280;69094;48.154;11.536;2023-11-19T02:59:08;95360.59;;;6.51;100.00
79612;BME280;69094;48.154;11.536;2023-11-19T03:01:43;95356.00;;;6.51;100.00
79612;BME280;69094;48.154;11.536;2023-11-19T03:04:13;95356.88;;;6.60;100.00
79612;BME280;69094;48.154;11.536;2023-11-19T03:06:42;95354.38;;;6.64;100.00
79612;BME280;69094;48.154;11.536;2023-11-19T03:09:07;95352.03;;;6.71;100.00
79612;BME280;69094;48.154;11.536;2023-11-19T03:11:35;95351.44;;;6.74;100.00
79612;BME280;69094;48.154;11.536;2023-11-19T03:14:01;95341.09;;;6.76;100.00
79612;BME280;69094;48.154;11.536;2023-11-19T03:16:28;95339.25;;;6.85;100.00
79612;BME280;69094;48.154;11.536;2023-11-19T03:18:53;95353.78;;;6.89;100.00
79612;BME280;69094;48.154;11.536;2023-11-19T03:21:18;95349.53;;;6.97;100.00
79612;BME280;69094;48.154;11.536;2023-11-19T03:23:44;95353.22;;;7.01;100.00
79612;BME280;69094;48.154;11.536;2023-11-19T03:26:10;95353.91;;;7.07;100.00
79612;BME280;69094;48.154;11.536;2023-11-19T03:28:36;95346.00;;;7.10;100.00
79612;BME280;69094;48.154;11.536;2023-11-19T03:31:04;95336.75;;;7.11;100.00
79612;BME280;69094;48.154;11.536;2023-11-19T03:33:30;95344.38;;;7.09;100.00
79612;BME280;69094;48.154;11.536;2023-11-19T03:35:56;95338.97;;;7.09;100.00
79612;BME280;69094;48.154;11.536;2023-11-19T03:38:23;95332.88;;;7.04;100.00
79612;BME280;69094;48.154;11.536;2023-11-19T03:40:48;95345.88;;;7.16;100.00
79612;BME280;69094;48.154;11.536;2023-11-19T03:43:14;95342.06;;;7.25;100.00
79612;BME280;69094;48.154;11.536;2023-11-19T03:45:39;95349.16;;;7.35;100.00
79612;BME280;69094;48.154;11.536;2023-11-19T03:48:05;95345.50;;;7.40;100.00
79612;BME280;69094;48.154;11.536;2023-11-19T03:50:30;95352.59;;;7.49;100.00
79612;BME280;69094;48.154;11.536;2023-11-19T03:52:55;95341.13;;;7.52;100.00
79612;BME280;69094;48.154;11.536;2023-11-19T03:55:20;95345.31;;;7.59;100.00
79612;BME280;69094;48.154;11.536;2023-11-19T03:57:46;95351.38;;;7.64;100.00
79612;BME280;69094;48.154;11.536;2023-11-19T04:00:13;95337.22;;;7.67;100.00
79612;BME280;69094;48.154;11.536;2023-11-19T04:02:39;95338.34;;;7.75;100.00
79612;BME280;69094;48.154;11.536;2023-11-19T04:05:05;95346.03;;;7.82;100.00
79612;BME280;69094;48.154;11.536;2023-11-19T04:07:32;95339.84;;;7.81;100.00
79612;BME280;69094;48.154;11.536;2023-11-19T04:09:57;95343.34;;;7.82;100.00
79612;BME280;69094;48.154;11.536;2023-11-19T04:12:23;95349.47;;;7.96;100.00
79612;BME280;69094;48.154;11.536;2023-11-19T04:14:48;95355.03;;;7.99;100.00
79612;BME280;69094;48.154;11.536;2023-11-19T04:17:13;95348.03;;;7.98;100.00
79612;BME280;69094;48.154;11.536;2023-11-19T04:19:39;95355.53;;;8.02;100.00
79612;BME280;69094;48.154;11.536;2023-11-19T04:22:09;95348.19;;;8.02;100.00
79612;BME280;69094;48.154;11.536;2023-11-19T04:24:35;95347.88;;;8.04;100.00
79612;BME280;69094;48.154;11.536;2023-11-19T04:27:00;95354.59;;;8.06;100.00
79612;BME280;69094;48.154;11.536;2023-11-19T04:29:26;95353.16;;;8.09;100.00
79612;BME280;69094;48.154;11.536;2023-11-19T04:31:51;95354.13;;;8.13;100.00
79612;BME280;69094;48.154;11.536;2023-11-19T04:34:16;95350.31;;;8.14;100.00
79612;BME280;69094;48.154;11.536;2023-11-19T04:36:42;95351.94;;;8.24;100.00
79612;BME280;69094;48.154;11.536;2023-11-19T04:39:09;95359.28;;;8.23;100.00
79612;BME280;69094;48.154;11.536;2023-11-19T04:41:51;95363.25;;;8.26;100.00
79612;BME280;69094;48.154;11.536;2023-11-19T04:44:20;95358.16;;;8.24;100.00
79612;BME280;69094;48.154;11.536;2023-11-19T04:46:45;95347.63;;;8.23;100.00
79612;BME280;69094;48.154;11.536;2023-11-19T04:49:11;95346.53;;;8.32;100.00
79612;BME280;69094;48.154;11.536;2023-11-19T04:51:39;95348.63;;;8.35;100.00
79612;BME280;69094;48.154;11.536;2023-11-19T04:54:05;95344.94;;;8.31;100.00
79612;BME280;69094;48.154;11.536;2023-11-19T04:56:30;95358.97;;;8.33;100.00
79612;BME280;69094;48.154;11.536;2023-11-19T04:58:55;95353.94;;;8.40;100.00
79612;BME280;69094;48.154;11.536;2023-11-19T05:01:20;95355.34;;;8.47;100.00
79612;BME280;69094;48.154;11.536;2023-11-19T05:03:46;95357.47;;;8.50;100.00
79612;BME280;69094;48.154;11.536;2023-11-19T05:06:11;95363.81;;;8.54;100.00
79612;BME280;69094;48.154;11.536;2023-11-19T05:08:36;95345.97;;;8.53;100.00
79612;BME280;69094;48.154;11.536;2023-11-19T05:11:02;95369.25;;;8.54;100.00
79612;BME280;69094;48.154;11.536;2023-11-19T05:13:28;95368.63;;;8.57;100.00
79612;BME280;69094;48.154;11.536;2023-11-19T05:15:54;95373.44;;;8.60;100.00
79612;BME280;69094;48.154;11.536;2023-11-19T05:18:20;95367.50;;;8.58;100.00
79612;BME280;69094;48.154;11.536;2023-11-19T05:20:45;95379.00;;;8.55;100.00
79612;BME280;69094;48.154;11.536;2023-11-19T05:23:11;95384.09;;;8.56;99.80
79612;BME280;69094;48.154;11.536;2023-11-19T05:25:36;95385.84;;;8.61;99.82
79612;BME280;69094;48.154;11.536;2023-11-19T05:28:02;95382.50;;;8.55;100.00
79612;BME280;69094;48.154;11.536;2023-11-19T05:30:27;95385.53;;;8.54;100.00
79612;BME280;69094;48.154;11.536;2023-11-19T05:32:53;95390.00;;;8.58;100.00
79612;BME280;69094;48.154;11.536;2023-11-19T05:35:18;95386.16;;;8.51;100.00
79612;BME280;69094;48.154;11.536;2023-11-19T05:37:43;95380.88;;;8.54;100.00
79612;BME280;69094;48.154;11.536;2023-11-19T05:40:09;95387.94;;;8.55;99.71
79612;BME280;69094;48.154;11.536;2023-11-19T05:42:43;95382.66;;;8.50;99.21
79612;BME280;69094;48.154;11.536;2023-11-19T05:45:11;95392.38;;;8.51;99.97
79612;BME280;69094;48.154;11.536;2023-11-19T05:47:36;95390.00;;;8.50;99.29
79612;BME280;69094;48.154;11.536;2023-11-19T05:50:02;95396.72;;;8.52;99.58
79612;BME280;69094;48.154;11.536;2023-11-19T05:52:28;95381.38;;;8.48;99.80
79612;BME280;69094;48.154;11.536;2023-11-19T05:54:59;95385.38;;;8.50;99.17
79612;BME280;69094;48.154;11.536;2023-11-19T05:57:24;95387.75;;;8.52;99.00
79612;BME280;69094;48.154;11.536;2023-11-19T05:59:50;95383.75;;;8.49;98.95
79612;BME280;69094;48.154;11.536;2023-11-19T06:02:16;95383.75;;;8.49;98.82
79612;BME280;69094;48.154;11.536;2023-11-19T06:04:41;95377.53;;;8.49;99.11
79612;BME280;69094;48.154;11.536;2023-11-19T06:07:09;95379.47;;;8.48;99.40
79612;BME280;69094;48.154;11.536;2023-11-19T06:09:34;95381.38;;;8.48;99.53
79612;BME280;69094;48.154;11.536;2023-11-19T06:12:00;95382.16;;;8.48;99.52
79612;BME280;69094;48.154;11.536;2023-11-19T06:14:27;95380.59;;;8.56;98.80
79612;BME280;69094;48.154;11.536;2023-11-19T06:16:52;95379.47;;;8.48;99.13
79612;BME280;69094;48.154;11.536;2023-11-19T06:19:18;95384.25;;;8.51;99.23
79612;BME280;69094;48.154;11.536;2023-11-19T06:21:43;95399.41;;;8.52;99.68
79612;BME280;69094;48.154;11.536;2023-11-19T06:24:09;95385.53;;;8.54;99.65
79612;BME280;69094;48.154;11.536;2023-11-19T06:26:34;95373.56;;;8.55;99.56
79612;BME280;69094;48.154;11.536;2023-11-19T06:29:00;95397.34;;;8.58;99.39
79612;BME280;69094;48.154;11.536;2023-11-19T06:31:25;95383.94;;;8.61;99.03
79612;BME280;69094;48.154;11.536;2023-11-19T06:33:50;95386.03;;;8.65;98.78
79612;BME280;69094;48.154;11.536;2023-11-19T06:36:16;95386.69;;;8.70;98.23
79612;BME280;69094;48.154;11.536;2023-11-19T06:38:42;95390.19;;;8.71;98.44
79612;BME280;69094;48.154;11.536;2023-11-19T06:41:08;95371.19;;;8.71;98.34
79612;BME280;69094;48.154;11.536;2023-11-19T06:43:37;95385.25;;;8.73;98.71
79612;BME280;69094;48.154;11.536;2023-11-19T06:46:03;95382.19;;;8.74;98.31
79612;BME280;69094;48.154;11.536;2023-11-19T06:48:32;95396.44;;;8.80;98.09
79612;BME280;69094;48.154;11.536;2023-11-19T06:50:57;95395.50;;;8.84;98.07
79612;BME280;69094;48.154;11.536;2023-11-19T06:53:23;95392.78;;;8.84;98.00
79612;BME280;69094;48.154;11.536;2023-11-19T06:55:48;95398.66;;;8.87;97.84
79612;BME280;69094;48.154;11.536;2023-11-19T06:58:13;95414.94;;;8.87;97.38
79612;BME280;69094;48.154;11.536;2023-11-19T07:00:39;95391.00;;;8.89;97.83
79612;BME280;69094;48.154;11.536;2023-11-19T07:03:04;95394.50;;;8.89;97.39
79612;BME280;69094;48.154;11.536;2023-11-19T07:05:36;95399.47;;;8.96;97.46
79612;BME280;69094;48.154;11.536;2023-11-19T07:08:02;95403.94;;;9.00;96.98
79612;BME280;69094;48.154;11.536;2023-11-19T07:10:28;95406.66;;;9.00;96.82
79612;BME280;69094;48.154;11.536;2023-11-19T07:12:54;95404.09;;;9.04;97.16
79612;BME280;69094;48.154;11.536;2023-11-19T07:15:19;95398.34;;;9.05;96.97
79612;BME280;69094;48.154;11.536;2023-11-19T07:17:45;95416.22;;;9.06;96.98
79612;BME280;69094;48.154;11.536;2023-11-19T07:20:11;95413.50;;;9.06;97.11
79612;BME280;69094;48.154;11.536;2023-11-19T07:22:38;95406.03;;;9.12;96.89
79612;BME280;69094;48.154;11.536;2023-11-19T07:25:04;95407.31;;;9.15;96.64
79612;BME280;69094;48.154;11.536;2023-11-19T07:27:30;95417.66;;;9.21;96.68
79612;BME280;69094;48.154;11.536;2023-11-19T07:29:55;95413.84;;;9.22;96.49
79612;BME280;69094;48.154;11.536;2023-11-19T07:32:21;95424.56;;;9.27;96.40
79612;BME280;69094;48.154;11.536;2023-11-19T07:34:46;95414.97;;;9.30;96.04
79612;BME280;69094;48.154;11.536;2023-11-19T07:37:11;95417.69;;;9.30;96.06
79612;BME280;69094;48.154;11.536;2023-11-19T07:39:37;95428.25;;;9.32;95.69
79612;BME280;69094;48.154;11.536;2023-11-19T07:42:06;95440.53;;;9.38;95.39
79612;BME280;69094;48.154;11.536;2023-11-19T07:44:32;95444.50;;;9.40;95.37
79612;BME280;69094;48.154;11.536;2023-11-19T07:46:57;95453.16;;;9.42;95.26
79612;BME280;69094;48.154;11.536;2023-11-19T07:49:23;95439.38;;;9.39;95.66
79612;BME280;69094;48.154;11.536;2023-11-19T07:51:49;95443.53;;;9.36;95.78
79612;BME280;69094;48.154;11.536;2023-11-19T07:54:14;95451.06;;;9.39;95.88
79612;BME280;69094;48.154;11.536;2023-11-19T07:56:39;95458.25;;;9.44;95.26
79612;BME280;69094;48.154;11.536;2023-11-19T07:59:05;95455.69;;;9.47;95.27
79612;BME280;69094;48.154;11.536;2023-11-19T08:01:31;95448.03;;;9.49;95.26
79612;BME280;69094;48.154;11.536;2023-11-19T08:03:57;95444.53;;;9.49;95.34
79612;BME280;69094;48.154;11.536;2023-11-19T08:06:22;95454.41;;;9.54;94.85
79612;BME280;69094;48.154;11.536;2023-11-19T08:08:47;95446.09;;;9.59;94.02
79612;BME280;69094;48.154;11.536;2023-11-19T08:11:13;95460.34;;;9.64;94.12
79612;BME280;69094;48.154;11.536;2023-11-19T08:13:39;95459.53;;;9.64;94.08
79612;BME280;69094;48.154;11.536;2023-11-19T08:16:04;95455.03;;;9.68;93.95
79612;BME280;69094;48.154;11.536;2023-11-19T08:18:31;95446.25;;;9.71;93.97
79612;BME280;69094;48.154;11.536;2023-11-19T08:21:32;95465.56;;;9.78;93.42
79612;BME280;69094;48.154;11.536;2023-11-19T08:24:15;95459.50;;;9.81;93.35
79612;BME280;69094;48.154;11.536;2023-11-19T08:27:13;95454.06;;;9.81;93.28
79612;BME280;69094;48.154;11.536;2023-11-19T08:29:39;95462.06;;;9.86;93.08
79612;BME280;69094;48.154;11.536;2023-11-19T08:32:05;95451.63;;;9.88;92.47
79612;BME280;69094;48.154;11.536;2023-11-19T08:34:31;95455.81;;;9.95;92.45
79612;BME280;69094;48.154;11.536;2023-11-19T08:36:57;95456.91;;;9.93;92.48
79612;BME280;69094;48.154;11.536;2023-11-19T08:39:22;95450.06;;;9.87;92.70
79612;BME280;69094;48.154;11.536;2023-11-19T08:41:48;95455.97;;;9.89;92.51
79612;BME280;69094;48.154;11.536;2023-11-19T08:44:13;95455.00;;;9.94;92.55
79612;BME280;69094;48.154;11.536;2023-11-19T08:46:43;95454.19;;;10.02;92.40
79612;BME280;69094;48.154;11.536;2023-11-19T08:49:10;95457.69;;;10.11;91.27
79612;BME280;69094;48.154;11.536;2023-11-19T08:51:36;95457.69;;;10.11;91.66
79612;BME280;69094;48.154;11.536;2023-11-19T08:54:01;95459.56;;;10.20;91.32
79612;BME280;69094;48.154;11.536;2023-11-19T08:56:26;95463.09;;;10.20;91.01
79612;BME280;69094;48.154;11.536;2023-11-19T08:58:57;95458.78;;;10.19;91.49
79612;BME280;69094;48.154;11.536;2023-11-19T09:01:22;95454.44;;;10.18;91.43
79612;BME280;69094;48.154;11.536;2023-11-19T09:03:47;95458.78;;;10.19;91.32
79612;BME280;69094;48.154;11.536;2023-11-19T09:06:13;95456.19;;;10.23;90.90
79612;BME280;69094;48.154;11.536;2023-11-19T09:08:38;95449.16;;;10.22;91.11
79612;BME280;69094;48.154;11.536;2023-11-19T09:11:06;95455.22;;;10.27;91.05
79612;BME280;69094;48.154;11.536;2023-11-19T09:13:32;95454.59;;;10.30;90.82
79612;BME280;69094;48.154;11.536;2023-11-19T09:15:58;95441.16;;;10.34;90.84
79612;BME280;69094;48.154;11.536;2023-11-19T09:18:28;95440.69;;;10.32;90.35
79612;BME280;69094;48.154;11.536;2023-11-19T09:20:54;95455.69;;;10.38;90.23
79612;BME280;69094;48.154;11.536;2023-11-19T09:23:19;95468.66;;;10.41;90.41
79612;BME280;69094;48.154;11.536;2023-11-19T09:25:45;95463.81;;;10.47;89.89
79612;BME280;69094;48.154;11.536;2023-11-19T09:28:10;95464.59;;;10.56;89.32
79612;BME280;69094;48.154;11.536;2023-11-19T09:30:35;95463.94;;;10.59;88.97
79612;BME280;69094;48.154;11.536;2023-11-19T09:33:01;95465.50;;;10.60;89.30
79612;BME280;69094;48.154;11.536;2023-11-19T09:35:26;95474.81;;;10.59;88.74
79612;BME280;69094;48.154;11.536;2023-11-19T09:37:52;95481.19;;;10.63;89.07
79612;BME280;69094;48.154;11.536;2023-11-19T09:40:18;95484.25;;;10.62;88.96
79612;BME280;69094;48.154;11.536;2023-11-19T09:42:44;95476.41;;;10.60;89.84
79612;BME280;69094;48.154;11.536;2023-11-19T09:45:14;95485.34;;;10.61;90.85
79612;BME280;69094;48.154;11.536;2023-11-19T09:47:44;95472.88;;;10.60;90.20
79612;BME280;69094;48.154;11.536;2023-11-19T09:50:15;95470.84;;;10.56;90.39
79612;BME280;69094;48.154;11.536;2023-11-19T09:52:42;95465.69;;;10.55;90.44
79612;BME280;69094;48.154;11.536;2023-11-19T09:55:07;95462.28;;;10.67;89.76
79612;BME280;69094;48.154;11.536;2023-11-19T09:57:34;95452.81;;;10.73;89.65
79612;BME280;69094;48.154;11.536;2023-11-19T10:00:03;95458.81;;;10.87;88.79
79612;BME280;69094;48.154;11.536;2023-11-19T10:02:31;95447.81;;;11.05;87.91
79612;BME280;69094;48.154;11.536;2023-11-19T10:04:59;95444.59;;;11.11;87.52
79612;BME280;69094;48.154;11.536;2023-11-19T10:07:24;95442.34;;;11.13;87.07
79612;BME280;69094;48.154;11.536;2023-11-19T10:09:50;95439.69;;;11.26;86.42
79612;BME280;69094;48.154;11.536;2023-11-19T10:12:15;95440.66;;;11.42;85.57
79612;BME280;69094;48.154;11.536;2023-11-19T10:14:42;95438.88;;;11.46;85.25
79612;BME280;69094;48.154;11.536;2023-11-19T10:17:09;95432.91;;;11.53;84.88
79612;BME280;69094;48.154;11.536;2023-11-19T10:19:34;95440.84;;;11.58;84.24
79612;BME280;69094;48.154;11.536;2023-11-19T10:22:06;95438.72;;;11.63;83.63
79612;BME280;69094;48.154;11.536;2023-11-19T10:24:32;95442.00;;;13.22;77.17
79612;BME280;69094;48.154;11.536;2023-11-19T10:26:59;95430.13;;;13.42;75.95
79612;BME280;69094;48.154;11.536;2023-11-19T10:29:25;95438.09;;;13.47;75.57
79612;BME280;69094;48.154;11.536;2023-11-19T10:31:57;95424.72;;;13.05;77.13
79612;BME280;69094;48.154;11.536;2023-11-19T10:34:25;95428.44;;;13.13;77.05
79612;BME280;69094;48.154;11.536;2023-11-19T10:36:51;95422.34;;;12.79;77.68
79612;BME280;69094;48.154;11.536;2023-11-19T10:39:16;95402.53;;;13.47;74.58
79612;BME280;69094;48.154;11.536;2023-11-19T10:41:43;95405.63;;;13.46;74.87
79612;BME280;69094;48.154;11.536;2023-11-19T10:44:08;95409.81;;;13.55;73.64
79612;BME280;69094;48.154;11.536;2023-11-19T10:46:41;95407.63;;;14.05;72.34
79612;BME280;69094;48.154;11.536;2023-11-19T10:49:07;95398.75;;;15.23;70.03
79612;BME280;69094;48.154;11.536;2023-11-19T10:51:33;95391.22;;;15.39;67.73
79612;BME280;69094;48.154;11.536;2023-11-19T10:54:03;95394.31;;;14.51;69.67
79612;BME280;69094;48.154;11.536;2023-11-19T10:56:33;95399.00;;;13.75;72.27
79612;BME280;69094;48.154;11.536;2023-11-19T10:59:00;95400.66;;;13.35;74.10
79612;BME280;69094;48.154;11.536;2023-11-19T11:01:41;95408.13;;;13.79;73.09
79612;BME280;69094;48.154;11.536;2023-11-19T11:04:13;95385.81;;;13.93;71.31
79612;BME280;69094;48.154;11.536;2023-11-19T11:06:40;95386.97;;;13.64;73.09
79612;BME280;69094;48.154;11.536;2023-11-19T11:09:07;95388.41;;;14.65;69.94
79612;BME280;69094;48.154;11.536;2023-11-19T11:11:38;95387.81;;;14.56;69.50
79612;BME280;69094;48.154;11.536;2023-11-19T11:14:04;95381.06;;;14.06;70.82
79612;BME280;69094;48.154;11.536;2023-11-19T11:16:31;95376.28;;;13.58;72.41
79612;BME280;69094;48.154;11.536;2023-11-19T11:18:58;95387.84;;;13.52;72.82
79612;BME280;69094;48.154;11.536;2023-11-19T11:21:25;95383.38;;;13.75;72.58
79612;BME280;69094;48.154;11.536;2023-11-19T11:27:09;95372.06;;;14.53;69.37
79612;BME280;69094;48.154;11.536;2023-11-19T11:32:16;95379.13;;;14.06;70.95
79612;BME280;69094;48.154;11.536;2023-11-19T11:37:39;95371.69;;;14.86;67.99
79612;BME280;69094;48.154;11.536;2023-11-19T11:40:14;95364.16;;;15.96;64.08
79612;BME280;69094;48.154;11.536;2023-11-19T11:42:41;95370.66;;;16.30;62.39
79612;BME280;69094;48.154;11.536;2023-11-19T11:45:12;95362.69;;;15.40;64.47
79612;BME280;69094;48.154;11.536;2023-11-19T11:50:16;95342.56;;;16.41;61.11
79612;BME280;69094;48.154;11.536;2023-11-19T11:55:52;95368.53;;;16.96;58.96
79612;BME280;69094;48.154;11.536;2023-11-19T11:58:20;95374.81;;;17.23;58.22
79612;BME280;69094;48.154;11.536;2023-11-19T12:00:47;95368.16;;;17.25;57.66
79612;BME280;69094;48.154;11.536;2023-11-19T12:03:13;95367.38;;;17.54;57.26
79612;BME280;69094;48.154;11.536;2023-11-19T12:05:41;95375.28;;;17.93;55.95
79612;BME280;69094;48.154;11.536;2023-11-19T12:08:07;95358.59;;;16.85;59.26
79612;BME280;69094;48.154;11.536;2023-11-19T12:10:46;95348.03;;;17.47;58.65
79612;BME280;69094;48.154;11.536;2023-11-19T12:13:13;95359.78;;;18.15;55.78
79612;BME280;69094;48.154;11.536;2023-11-19T12:18:30;95362.94;;;18.62;53.99
79612;BME280;69094;48.154;11.536;2023-11-19T12:20:59;95359.50;;;16.96;56.58
79612;BME280;69094;48.154;11.536;2023-11-19T12:23:29;95366.50;;;16.90;57.61
79612;BME280;69094;48.154;11.536;2023-11-19T12:25:55;95366.56;;;16.70;58.52
79612;BME280;69094;48.154;11.536;2023-11-19T12:28:21;95360.41;;;17.04;57.07
79612;BME280;69094;48.154;11.536;2023-11-19T12:30:48;95350.69;;;16.33;58.69
79612;BME280;69094;48.154;11.536;2023-11-19T12:33:14;95337.44;;;15.93;59.73
79612;BME280;69094;48.154;11.536;2023-11-19T12:35:44;95335.97;;;16.22;59.23
79612;BME280;69094;48.154;11.536;2023-11-19T12:38:21;95328.25;;;16.54;57.95
79612;BME280;69094;48.154;11.536;2023-11-19T12:40:46;95319.59;;;17.06;56.67
79612;BME280;69094;48.154;11.536;2023-11-19T12:43:21;95313.28;;;17.35;55.08
79612;BME280;69094;48.154;11.536;2023-11-19T12:45:50;95320.13;;;17.15;56.09
79612;BME280;69094;48.154;11.536;2023-11-19T12:48:15;95318.19;;;17.49;55.00
79612;BME280;69094;48.154;11.536;2023-11-19T12:53:17;95321.28;;;17.44;55.07
79612;BME280;69094;48.154;11.536;2023-11-19T12:55:43;95303.00;;;16.98;55.48
79612;BME280;69094;48.154;11.536;2023-11-19T12:58:09;95317.13;;;16.70;57.23
79612;BME280;69094;48.154;11.536;2023-11-19T13:00:34;95315.03;;;17.17;55.42
79612;BME280;69094;48.154;11.536;2023-11-19T13:02:59;95313.25;;;17.01;56.37
79612;BME280;69094;48.154;11.536;2023-11-19T13:08:04;95310.50;;;16.48;57.74
79612;BME280;69094;48.154;11.536;2023-11-19T13:10:49;95310.31;;;16.11;58.82
79612;BME280;69094;48.154;11.536;2023-11-19T13:13:15;95312.44;;;15.36;61.25
79612;BME280;69094;48.154;11.536;2023-11-19T13:15:41;95307.47;;;14.68;63.48